Time;durP1;ratioP1;P1;durP2;ratioP2;P2;SDS_P1;SDS_P2;PMS_P1;PMS_P2;Temp;Humidity;BMP_temperature;BMP_pressure;BME280_temperature;BME280_humidity;BME280_pressure;Samples;Min_cycle;Max_cycle;Signal;HPM_P1;HPM_P2
2020/12/06 00:00:37;;;;;;;3.58;3.28;;;;;;;1.72;83.64;98686.44;4937271;28;20030;-80
2020/12/06 00:03:02;;;;;;;3.15;2.95;;;;;;;1.74;84.61;98695.09;4952573;28;20032;-81
2020/12/06 00:05:28;;;;;;;4.40;3.53;;;;;;;1.68;83.83;98693.38;4950757;28;20497;-78
2020/12/06 00:07:53;;;;;;;3.83;3.53;;;;;;;1.69;84.19;98695.03;4930349;28;20027;-79
2020/12/06 00:10:21;;;;;;;4.28;3.97;;;;;;;1.70;83.56;98699.34;4933459;28;20508;-79
2020/12/06 00:12:47;;;;;;;2.80;2.70;;;;;;;1.74;83.52;98705.88;4929898;28;20059;-80
2020/12/06 00:15:15;;;;;;;3.85;3.53;;;;;;;1.73;83.37;98709.63;4934775;29;20043;-81
2020/12/06 00:17:43;;;;;;;4.70;3.90;;;;;;;1.75;83.32;98710.19;4933828;29;20048;-80
2020/12/06 00:20:12;;;;;;;4.00;3.80;;;;;;;1.75;83.91;98707.50;4939755;29;20039;-80
2020/12/06 00:22:38;;;;;;;9.73;4.07;;;;;;;1.73;84.73;98706.94;4926055;29;20043;-81
2020/12/06 00:25:04;;;;;;;3.78;3.47;;;;;;;1.75;83.71;98718.28;4933962;29;20032;-80
2020/12/06 00:27:34;;;;;;;4.43;4.07;;;;;;;1.73;84.53;98712.31;4936618;29;20036;-78
2020/12/06 00:30:00;;;;;;;5.18;4.30;;;;;;;1.72;83.63;98722.31;4939104;29;20034;-76
2020/12/06 00:32:26;;;;;;;4.57;4.18;;;;;;;1.66;83.60;98711.69;4936148;29;20475;-76
2020/12/06 00:34:51;;;;;;;4.85;4.55;;;;;;;1.67;84.35;98722.22;4945335;29;20051;-81
2020/12/06 00:37:17;;;;;;;4.93;4.53;;;;;;;1.67;83.33;98710.63;4910398;29;20099;-79
2020/12/06 00:39:43;;;;;;;5.07;4.65;;;;;;;1.73;84.86;98718.53;4946967;29;20069;-77
2020/12/06 00:42:10;;;;;;;4.72;4.32;;;;;;;1.73;84.04;98715.03;4946446;29;20058;-78
2020/12/06 00:44:36;;;;;;;7.15;5.43;;;;;;;1.76;83.68;98713.72;4915934;29;20066;-78
2020/12/06 00:47:04;;;;;;;11.90;5.97;;;;;;;1.75;83.81;98712.88;4933282;29;20055;-78
2020/12/06 00:49:29;;;;;;;7.38;6.68;;;;;;;1.74;84.17;98700.50;4941483;29;20391;-77
2020/12/06 00:51:55;;;;;;;6.82;5.97;;;;;;;1.90;84.26;98715.78;4927190;29;20027;-78
2020/12/06 00:54:21;;;;;;;6.38;5.78;;;;;;;1.87;84.82;98712.75;4939512;29;20040;-76
2020/12/06 00:56:53;;;;;;;6.85;6.30;;;;;;;1.91;83.48;98722.81;4943724;29;20074;-79
2020/12/06 00:59:21;;;;;;;6.78;6.20;;;;;;;1.87;83.92;98708.19;4943853;29;20027;-82
2020/12/06 01:01:47;;;;;;;7.35;6.38;;;;;;;1.96;84.69;98722.06;4937143;29;20032;-80
2020/12/06 01:04:20;;;;;;;7.28;5.50;;;;;;;1.94;84.25;98720.66;4932507;29;20493;-78
2020/12/06 01:06:53;;;;;;;8.48;6.05;;;;;;;1.97;84.55;98731.78;4949839;28;20032;-78
2020/12/06 01:09:21;;;;;;;6.93;6.28;;;;;;;1.96;83.43;98740.09;4926792;29;20401;-80
2020/12/06 01:11:50;;;;;;;4.40;4.13;;;;;;;1.99;84.78;98736.91;4931485;29;20051;-79
2020/12/06 01:14:15;;;;;;;6.50;5.45;;;;;;;1.95;83.85;98717.72;4954105;28;20066;-78
2020/12/06 01:16:44;;;;;;;6.95;5.57;;;;;;;2.00;84.29;98735.84;4923533;28;20031;-79
2020/12/06 01:19:18;;;;;;;7.13;5.60;;;;;;;1.84;83.65;98722.19;4946515;28;20031;-78
2020/12/06 01:21:51;;;;;;;7.47;6.72;;;;;;;1.80;83.66;98714.84;4946056;28;20034;-79
2020/12/06 01:24:17;;;;;;;5.43;5.03;;;;;;;1.88;84.98;98736.78;4942230;28;20040;-79
2020/12/06 01:26:54;;;;;;;4.60;4.28;;;;;;;1.76;83.68;98729.88;4955322;28;20047;-79
2020/12/06 01:29:19;;;;;;;5.97;5.43;;;;;;;1.82;84.40;98729.69;4923441;28;20106;-77
2020/12/06 01:31:49;;;;;;;5.22;4.88;;;;;;;1.98;84.05;98754.97;4929335;28;20065;-79
2020/12/06 01:34:24;;;;;;;7.53;6.40;;;;;;;1.92;84.16;98729.81;4946709;28;20482;-77
2020/12/06 01:36:57;;;;;;;6.45;5.95;;;;;;;2.02;85.10;98737.22;4941811;29;20454;-78
2020/12/06 01:39:33;;;;;;;7.43;5.63;;;;;;;2.08;84.72;98749.69;4944765;29;20065;-77
2020/12/06 01:41:58;;;;;;;;;;;;;;;2.20;84.38;98760.34;4945648;29;20066;-78
2020/12/06 01:44:26;;;;;;;;;;;;;;;2.23;85.21;98762.56;4941839;28;19911;-77
2020/12/06 01:46:53;;;;;;;6.97;6.15;;;;;;;2.24;84.47;98764.16;4964017;28;19968;-78
2020/12/06 01:49:20;;;;;;;6.35;5.15;;;;;;;2.25;85.08;98770.41;4936348;28;20035;-78
2020/12/06 01:52:00;;;;;;;5.07;4.65;;;;;;;2.19;83.63;98761.44;4943199;28;20032;-78
2020/12/06 01:54:39;;;;;;;5.53;5.07;;;;;;;2.20;83.91;98763.03;4944059;29;20027;-78
2020/12/06 01:57:05;;;;;;;5.00;4.72;;;;;;;2.26;84.27;98777.41;4963634;28;20400;-78
2020/12/06 01:59:31;;;;;;;7.05;6.28;;;;;;;2.16;84.24;98775.41;4957244;28;20027;-76
2020/12/06 02:02:04;;;;;;;5.75;5.35;;;;;;;2.04;84.39;98767.44;4942253;28;20040;-77
2020/12/06 02:04:40;;;;;;;4.72;4.32;;;;;;;2.02;84.38;98777.66;4955276;28;20035;-78
2020/12/06 02:07:06;;;;;;;6.88;5.50;;;;;;;2.07;83.77;98793.09;4951901;28;20063;-76
2020/12/06 02:09:34;;;;;;;4.30;4.03;;;;;;;1.97;83.46;98788.41;4956347;28;20031;-76
2020/12/06 02:12:06;;;;;;;5.57;4.30;;;;;;;1.86;82.76;98790.13;4933613;28;20079;-75
2020/12/06 02:14:31;;;;;;;3.53;3.33;;;;;;;1.80;83.40;98785.72;4938300;28;20065;-76
2020/12/06 02:16:57;;;;;;;4.65;4.35;;;;;;;1.74;83.63;98786.72;4935985;29;20043;-76
2020/12/06 02:19:26;;;;;;;3.22;3.08;;;;;;;1.64;83.00;98775.81;4934681;29;20043;-76
2020/12/06 02:21:51;;;;;;;2.80;2.60;;;;;;;1.62;83.50;98789.53;4923538;29;20028;-75
2020/12/06 02:24:19;;;;;;;4.03;3.60;;;;;;;1.54;83.42;98782.66;4943134;28;20481;-76
2020/12/06 02:26:51;;;;;;;3.95;3.75;;;;;;;1.56;83.61;98791.34;4916674;29;20027;-77
2020/12/06 02:29:29;;;;;;;4.70;3.97;;;;;;;1.43;83.00;98775.50;4932228;29;20036;-77
2020/12/06 02:31:56;;;;;;;4.90;4.57;;;;;;;1.45;83.42;98783.34;4932868;29;20024;-77
2020/12/06 02:34:31;;;;;;;6.15;5.30;;;;;;;1.44;83.74;98779.81;4925040;29;20028;-77
2020/12/06 02:37:02;;;;;;;5.65;5.22;;;;;;;1.50;82.82;98796.88;4942747;28;20039;-75
2020/12/06 02:39:27;;;;;;;6.82;6.43;;;;;;;1.39;83.50;98785.16;4948676;28;20035;-77
2020/12/06 02:42:03;;;;;;;9.27;6.38;;;;;;;1.35;83.68;98784.81;4943906;29;20019;-75
2020/12/06 02:44:28;;;;;;;9.00;6.80;;;;;;;1.29;83.64;98776.91;4935071;29;20041;-77
2020/12/06 02:46:58;;;;;;;7.18;6.55;;;;;;;1.28;83.48;98783.34;4935130;29;20475;-74
2020/12/06 02:49:31;;;;;;;8.82;8.13;;;;;;;1.31;84.94;98774.78;4935005;29;20028;-75
2020/12/06 02:51:59;;;;;;;7.00;6.03;;;;;;;1.62;84.71;98796.78;4929828;29;20032;-75
2020/12/06 02:54:27;;;;;;;8.98;8.00;;;;;;;1.81;85.65;98802.72;4926445;29;20051;-74
2020/12/06 02:56:52;;;;;;;7.40;6.70;;;;;;;1.95;85.33;98809.38;4941407;29;20067;-74
2020/12/06 02:59:17;;;;;;;5.82;5.43;;;;;;;2.03;85.15;98800.88;4935194;29;20055;-74
2020/12/06 03:01:43;;;;;;;7.43;6.85;;;;;;;2.15;85.11;98802.66;4903002;29;20039;-74
2020/12/06 03:04:08;;;;;;;5.90;5.22;;;;;;;2.22;84.36;98809.47;4933633;29;20040;-74
2020/12/06 03:06:34;;;;;;;6.78;6.25;;;;;;;2.23;84.77;98805.72;4937428;29;20498;-73
2020/12/06 03:09:01;;;;;;;5.75;5.35;;;;;;;2.31;85.39;98811.72;4940170;28;20446;-74
2020/12/06 03:11:27;;;;;;;4.57;4.18;;;;;;;2.36;84.03;98819.88;4937115;29;20036;-74
2020/12/06 03:13:54;;;;;;;5.55;5.05;;;;;;;2.42;84.82;98808.06;4949074;28;20062;-73
2020/12/06 03:16:19;;;;;;;6.25;5.65;;;;;;;2.51;83.85;98817.38;4939951;29;20019;-75
2020/12/06 03:18:46;;;;;;;6.95;6.30;;;;;;;2.49;84.27;98819.50;4916628;29;20038;-74
2020/12/06 03:21:11;;;;;;;6.53;5.90;;;;;;;2.50;84.33;98826.53;4958742;28;20086;-74
2020/12/06 03:23:37;;;;;;;12.45;7.57;;;;;;;2.54;84.05;98822.25;4958112;28;20066;-75
2020/12/06 03:26:02;;;;;;;8.13;7.30;;;;;;;2.55;84.64;98829.28;4933318;28;20028;-75
2020/12/06 03:28:28;;;;;;;5.20;4.45;;;;;;;2.61;84.15;98838.25;4921049;29;20038;-75
2020/12/06 03:31:06;;;;;;;;;;;;;;;;;;;;;
2020/12/06 03:33:32;;;;;;;5.38;4.97;;;;;;;2.48;83.68;98817.06;4952496;28;20106;-74
2020/12/06 03:36:02;;;;;;;5.05;4.40;;;;;;;2.56;83.99;98833.59;4956991;28;20051;-75
2020/12/06 03:38:28;;;;;;;3.97;3.63;;;;;;;2.55;84.14;98817.66;4951343;28;20055;-75
2020/12/06 03:40:53;;;;;;;7.93;5.97;;;;;;;2.57;84.17;98820.91;4939347;29;20074;-75
2020/12/06 03:43:19;;;;;;;5.72;4.65;;;;;;;2.66;83.51;98834.78;4944028;28;20047;-75
2020/12/06 03:45:44;;;;;;;4.20;3.80;;;;;;;2.77;83.37;98841.94;4911816;28;20035;-74
2020/12/06 03:48:10;;;;;;;6.05;5.38;;;;;;;2.77;83.72;98836.53;4942304;28;20031;-75
2020/12/06 03:50:35;;;;;;;4.72;4.38;;;;;;;2.85;84.39;98844.19;4939718;28;20867;-75
2020/12/06 03:53:02;;;;;;;5.63;5.13;;;;;;;2.77;83.38;98837.38;4941296;28;20035;-74
2020/12/06 03:55:30;;;;;;;6.47;5.60;;;;;;;2.89;84.08;98849.88;4957760;28;20035;-76
2020/12/06 03:58:02;;;;;;;5.68;5.10;;;;;;;2.79;83.71;98826.31;4925532;28;20031;-76
2020/12/06 04:00:28;;;;;;;11.38;5.47;;;;;;;2.86;84.05;98837.72;4941605;29;20034;-75
2020/12/06 04:03:04;;;;;;;4.38;4.07;;;;;;;2.84;83.84;98839.84;4944934;28;20023;-75
2020/12/06 04:05:32;;;;;;;5.10;4.68;;;;;;;2.86;83.57;98835.03;4941903;28;20125;-75
2020/12/06 04:07:57;;;;;;;6.28;5.35;;;;;;;2.93;83.75;98838.31;4948334;29;20079;-76
2020/12/06 04:10:23;;;;;;;8.07;5.70;;;;;;;3.15;83.89;98859.06;4922007;28;20027;-76
2020/12/06 04:12:48;;;;;;;7.70;6.13;;;;;;;3.27;83.36;98867.84;4963148;28;20043;-76
2020/12/06 04:15:14;;;;;;;8.70;6.63;;;;;;;3.27;83.46;98859.72;4950102;28;20369;-76
2020/12/06 04:17:39;;;;;;;6.18;5.63;;;;;;;3.29;83.26;98854.88;4933993;29;20119;-76
2020/12/06 04:20:06;;;;;;;12.38;6.07;;;;;;;3.39;82.62;98866.84;4948251;28;20038;-77
2020/12/06 04:22:31;;;;;;;6.22;5.50;;;;;;;3.39;83.05;98874.94;4944281;28;20027;-76
2020/12/06 04:24:59;;;;;;;12.98;6.80;;;;;;;3.41;82.82;98867.41;4946045;28;20035;-77
2020/12/06 04:27:27;;;;;;;6.47;5.85;;;;;;;3.41;82.42;98862.00;4948220;28;20025;-76
2020/12/06 04:30:02;;;;;;;8.90;4.65;;;;;;;3.31;82.33;98839.25;4954295;28;20039;-76
2020/12/06 04:32:38;;;;;;;;;;;;;;;;;;;;;
2020/12/06 04:35:13;;;;;;;11.82;5.95;;;;;;;3.36;82.10;98851.97;4970478;28;20061;-76
2020/12/06 04:37:54;;;;;;;;;;;;;;;;;;;;;
2020/12/06 04:40:21;;;;;;;5.88;5.47;;;;;;;3.38;82.31;98857.13;4963666;28;19974;-77
2020/12/06 04:42:47;;;;;;;6.82;6.05;;;;;;;3.31;82.55;98865.41;4957305;28;20038;-77
2020/12/06 04:45:15;;;;;;;7.15;6.57;;;;;;;3.35;82.91;98863.84;4955999;28;20478;-76
2020/12/06 04:48:03;;;;;;;8.23;6.60;;;;;;;3.16;82.69;98839.09;4954214;28;20027;-77
2020/12/06 04:50:47;;;;;;;;;;;;;;;;;;;;;
2020/12/06 04:53:17;;;;;;;8.70;7.32;;;;;;;3.19;81.95;98854.78;4961498;28;20095;-76
2020/12/06 04:55:53;;;;;;;7.90;7.07;;;;;;;3.17;82.36;98867.75;4958226;28;20422;-76
2020/12/06 04:58:24;;;;;;;8.13;6.57;;;;;;;3.09;82.50;98870.91;4952815;28;20035;-77
2020/12/06 05:00:53;;;;;;;8.38;6.40;;;;;;;3.13;81.97;98870.13;4950965;28;20039;-76
2020/12/06 05:03:33;;;;;;;11.18;7.22;;;;;;;3.12;82.90;98875.78;4939619;29;20039;-77
2020/12/06 05:06:06;;;;;;;7.30;6.57;;;;;;;2.96;82.55;98862.13;4952760;28;20023;-74
2020/12/06 05:08:35;;;;;;;8.07;6.55;;;;;;;3.04;82.16;98877.06;4953111;28;20112;-75
2020/12/06 05:11:01;;;;;;;7.85;7.00;;;;;;;3.11;82.38;98884.94;4953393;28;20027;-75
2020/12/06 05:13:33;;;;;;;11.30;8.02;;;;;;;3.20;83.01;98902.34;4941278;28;20085;-75
2020/12/06 05:16:06;;;;;;;8.13;7.22;;;;;;;3.20;82.34;98880.72;4925102;28;20063;-75
2020/12/06 05:18:42;;;;;;;7.25;6.65;;;;;;;3.27;81.79;98889.44;4956516;28;20073;-76
2020/12/06 05:21:07;;;;;;;7.72;6.20;;;;;;;3.31;81.58;98887.88;4946605;28;20036;-78
2020/12/06 05:23:33;;;;;;;6.97;6.18;;;;;;;3.44;82.34;98896.63;4942254;28;20035;-75
2020/12/06 05:25:59;;;;;;;7.72;6.68;;;;;;;3.40;81.47;98887.38;4932290;29;20047;-76
2020/12/06 05:28:27;;;;;;;7.07;5.90;;;;;;;3.41;81.51;98889.84;4947739;28;20042;-78
2020/12/06 05:31:19;;;;;;;7.53;6.47;;;;;;;3.42;81.96;98890.66;4957049;28;20039;-79
2020/12/06 05:33:46;;;;;;;5.78;5.25;;;;;;;3.39;80.97;98889.28;4957318;28;20054;-78
2020/12/06 05:36:12;;;;;;;5.55;5.00;;;;;;;3.47;81.58;98896.09;4943481;29;20030;-78
2020/12/06 05:38:38;;;;;;;7.53;6.80;;;;;;;3.48;81.81;98892.34;4936743;29;20034;-78
2020/12/06 05:41:07;;;;;;;6.45;4.90;;;;;;;3.50;81.68;98903.69;4947129;28;20037;-77
2020/12/06 05:43:33;;;;;;;6.10;5.60;;;;;;;3.46;81.78;98891.75;4957746;28;20035;-77
2020/12/06 05:46:13;;;;;;;7.78;5.80;;;;;;;3.58;81.27;98922.16;4956420;28;20023;-78
2020/12/06 05:48:43;;;;;;;5.80;5.40;;;;;;;3.56;81.72;98924.28;4953298;28;20031;-77
2020/12/06 05:51:09;;;;;;;6.30;5.78;;;;;;;3.61;81.53;98927.06;4955679;28;20027;-77
2020/12/06 05:53:35;;;;;;;5.57;4.80;;;;;;;3.51;81.20;98909.94;4941847;28;20039;-79
2020/12/06 05:56:13;;;;;;;11.73;5.97;;;;;;;3.62;81.50;98922.44;4951347;28;20098;-77
2020/12/06 05:58:46;;;;;;;5.05;4.60;;;;;;;3.60;81.40;98928.13;4946161;28;20027;-76
2020/12/06 06:01:14;;;;;;;6.95;6.35;;;;;;;3.57;81.65;98925.94;4922793;29;20475;-76
2020/12/06 06:03:42;;;;;;;13.15;6.97;;;;;;;3.57;81.14;98931.34;4941042;29;20038;-77
2020/12/06 06:06:13;;;;;;;6.25;5.38;;;;;;;3.50;81.10;98919.91;4941829;29;20544;-77
2020/12/06 06:08:44;;;;;;;5.05;4.70;;;;;;;3.60;81.43;98936.22;4952508;28;20031;-76
2020/12/06 06:11:27;;;;;;;8.25;6.15;;;;;;;3.47;81.71;98915.03;4941967;29;20063;-77
2020/12/06 06:14:01;;;;;;;6.03;5.55;;;;;;;3.57;81.45;98920.53;4937952;28;20102;-76
2020/12/06 06:16:45;;;;;;;7.80;6.43;;;;;;;3.60;80.90;98927.31;4934126;28;20038;-77
2020/12/06 06:19:11;;;;;;;4.47;4.28;;;;;;;3.63;80.81;98930.31;4940841;28;20047;-76
2020/12/06 06:21:42;;;;;;;6.63;6.03;;;;;;;3.59;81.08;98926.50;4936673;28;20561;-76
2020/12/06 06:24:11;;;;;;;8.35;7.07;;;;;;;3.66;80.42;98937.91;4938971;29;20031;-76
2020/12/06 06:26:40;;;;;;;5.78;5.20;;;;;;;3.67;81.39;98928.72;4938942;28;20023;-76
2020/12/06 06:29:13;;;;;;;6.97;6.38;;;;;;;3.70;81.57;98926.59;4945417;28;20196;-76
2020/12/06 06:31:47;;;;;;;6.65;6.07;;;;;;;3.62;80.63;98907.06;4939587;28;20015;-76
2020/12/06 06:34:16;;;;;;;5.15;4.80;;;;;;;3.73;80.49;98928.78;4938917;29;20085;-76
2020/12/06 06:36:47;;;;;;;6.65;6.15;;;;;;;3.77;81.09;98929.91;4951865;28;20045;-76
2020/12/06 06:39:25;;;;;;;6.75;5.05;;;;;;;3.70;80.67;98930.09;4957789;28;20032;-77
2020/12/06 06:42:07;;;;;;;6.75;6.22;;;;;;;3.65;80.65;98922.75;4932613;28;20058;-76
2020/12/06 06:44:37;;;;;;;5.53;5.22;;;;;;;3.66;80.61;98929.81;4939575;29;20067;-76
2020/12/06 06:47:07;;;;;;;6.90;6.18;;;;;;;3.72;79.80;98935.25;4949123;28;20038;-76
2020/12/06 06:49:51;;;;;;;7.50;6.47;;;;;;;3.70;80.77;98935.50;4931616;29;20421;-76
2020/12/06 06:52:17;;;;;;;8.35;5.43;;;;;;;3.51;80.64;98910.75;4930353;28;20047;-76
2020/12/06 06:54:47;;;;;;;5.43;4.78;;;;;;;3.63;79.89;98935.72;4936834;29;20119;-77
2020/12/06 06:57:15;;;;;;;6.93;6.53;;;;;;;3.44;79.68;98923.66;4938682;28;20031;-76
2020/12/06 06:59:51;;;;;;;7.47;6.45;;;;;;;3.44;79.33;98942.56;4931257;28;20031;-77
2020/12/06 07:02:32;;;;;;;6.80;6.20;;;;;;;3.21;79.84;98933.66;4955063;28;20031;-76
2020/12/06 07:05:02;;;;;;;5.95;5.57;;;;;;;3.17;80.48;98935.28;4928912;29;20083;-77
2020/12/06 07:07:44;;;;;;;4.80;4.47;;;;;;;3.09;80.45;98935.72;4931628;29;20027;-76
2020/12/06 07:10:34;;;;;;;;;;;;;;;;;;;;;
2020/12/06 07:13:12;;;;;;;4.25;3.90;;;;;;;2.72;80.38;98929.09;4951075;28;20051;-78
2020/12/06 07:15:39;;;;;;;5.40;4.95;;;;;;;2.57;80.77;98929.72;4955281;28;20034;-78
2020/12/06 07:18:08;;;;;;;6.32;5.65;;;;;;;2.52;80.67;98931.53;4960866;28;20116;-79
2020/12/06 07:20:33;;;;;;;14.45;5.07;;;;;;;2.51;81.22;98952.31;4936371;28;20036;-79
2020/12/06 07:22:58;;;;;;;7.30;5.47;;;;;;;2.41;81.24;98935.94;4913276;29;20033;-78
2020/12/06 07:25:24;;;;;;;7.72;6.60;;;;;;;2.41;81.28;98944.03;4948276;28;20028;-78
2020/12/06 07:27:50;;;;;;;8.32;4.57;;;;;;;2.40;81.75;98953.22;4925097;28;20098;-78
2020/12/06 07:30:19;;;;;;;5.63;5.20;;;;;;;2.27;80.98;98936.31;4949959;28;20493;-79
2020/12/06 07:32:47;;;;;;;6.38;5.78;;;;;;;2.26;81.34;98934.69;4942065;28;20074;-79
2020/12/06 07:35:26;;;;;;;;;;;;;;;;;;;;;
2020/12/06 07:37:58;;;;;;;4.22;3.92;;;;;;;2.22;81.35;98941.63;4949768;28;20118;-78
2020/12/06 07:40:24;;;;;;;3.45;3.17;;;;;;;2.38;82.07;98950.78;4954971;28;20077;-78
2020/12/06 07:42:49;;;;;;;3.45;3.25;;;;;;;2.32;82.17;98926.66;4948761;28;20453;-79
2020/12/06 07:45:15;;;;;;;6.88;6.20;;;;;;;2.42;81.99;98932.19;4954069;28;20419;-78
2020/12/06 07:47:40;;;;;;;6.05;5.65;;;;;;;2.68;82.46;98962.22;4924063;28;20042;-80
2020/12/06 07:50:07;;;;;;;5.05;4.72;;;;;;;2.72;81.48;98957.97;4929017;29;20070;-79
2020/12/06 07:52:36;;;;;;;6.13;5.45;;;;;;;2.66;82.38;98942.75;4915798;28;20035;-78
2020/12/06 07:55:11;;;;;;;9.02;6.07;;;;;;;2.71;81.64;98950.94;4963436;28;20467;-78
2020/12/06 07:57:40;;;;;;;5.88;5.43;;;;;;;2.81;82.04;98971.84;4960431;28;20041;-78
2020/12/06 08:00:27;;;;;;;4.75;4.22;;;;;;;2.80;81.57;98976.41;4950888;28;20035;-78
2020/12/06 08:02:57;;;;;;;5.47;2.80;;;;;;;2.74;82.01;98972.81;4953851;29;20041;-78
2020/12/06 08:05:26;;;;;;;5.53;5.13;;;;;;;2.75;82.09;98974.47;4951530;28;20154;-78
2020/12/06 08:08:10;;;;;;;9.13;5.45;;;;;;;2.92;82.36;98993.31;4940694;29;20059;-79
2020/12/06 08:10:42;;;;;;;5.38;4.97;;;;;;;2.91;82.16;98983.59;4956057;28;20035;-77
2020/12/06 08:13:13;;;;;;;6.40;5.85;;;;;;;3.15;81.54;99002.22;4945060;28;20075;-78
2020/12/06 08:15:38;;;;;;;5.47;5.07;;;;;;;3.23;81.26;98987.47;4929272;28;20026;-79
2020/12/06 08:18:15;;;;;;;3.83;3.63;;;;;;;3.37;81.43;99001.41;4947950;28;20063;-79
2020/12/06 08:20:51;;;;;;;4.47;4.13;;;;;;;3.45;81.36;98998.25;4938314;28;20034;-79
2020/12/06 08:23:36;;;;;;;5.18;4.85;;;;;;;3.43;80.88;98981.47;4940254;29;20055;-80
2020/12/06 08:26:03;;;;;;;7.70;5.60;;;;;;;3.49;80.85;98978.56;4938118;28;20098;-79
2020/12/06 08:28:49;;;;;;;8.73;7.22;;;;;;;3.56;80.93;98994.56;4941389;29;20036;-80
2020/12/06 08:31:23;;;;;;;7.40;6.63;;;;;;;3.48;79.92;98987.75;4937624;28;20043;-78
2020/12/06 08:33:51;;;;;;;5.32;4.97;;;;;;;3.53;80.69;98996.97;4955420;28;20055;-79
2020/12/06 08:36:24;;;;;;;7.00;4.93;;;;;;;3.53;80.95;98989.66;4952143;28;20084;-79
2020/12/06 08:38:50;;;;;;;4.57;4.38;;;;;;;3.43;80.34;98978.75;4926980;29;20393;-78
2020/12/06 08:41:25;;;;;;;4.72;4.28;;;;;;;3.44;80.60;98989.31;4940552;28;20027;-79
2020/12/06 08:44:03;;;;;;;7.88;4.18;;;;;;;3.60;79.74;99006.50;4943038;29;20031;-79
2020/12/06 08:46:30;;;;;;;4.90;4.57;;;;;;;3.54;80.42;98996.72;4946456;28;20034;-80
2020/12/06 08:48:58;;;;;;;7.50;5.50;;;;;;;3.57;79.45;99012.44;4944811;28;20055;-79
2020/12/06 08:51:37;;;;;;;6.75;4.07;;;;;;;3.55;80.01;99003.75;4952764;28;20028;-80
2020/12/06 08:54:07;;;;;;;4.55;4.15;;;;;;;3.52;79.49;99004.28;4958550;28;20031;-79
2020/12/06 08:56:35;;;;;;;4.18;3.88;;;;;;;3.54;79.30;99007.53;4946507;28;20027;-81
2020/12/06 08:59:10;;;;;;;4.45;4.03;;;;;;;3.53;79.79;99011.28;4954526;28;20109;-81
2020/12/06 09:02:08;;;;;;;4.57;4.18;;;;;;;3.70;80.82;99015.81;4941536;28;20035;-80
2020/12/06 09:04:39;;;;;;;4.07;3.78;;;;;;;3.79;79.95;99014.28;4933933;28;20121;-80
2020/12/06 09:07:05;;;;;;;4.50;4.10;;;;;;;3.95;79.64;99013.31;4952004;28;20062;-79
2020/12/06 09:09:34;;;;;;;5.82;5.32;;;;;;;4.19;79.35;99019.22;4942852;29;20054;-82
2020/12/06 09:12:02;;;;;;;3.90;3.70;;;;;;;4.43;79.04;99026.19;4964524;28;20019;-81
2020/12/06 09:14:33;;;;;;;5.03;4.28;;;;;;;4.71;79.10;99031.22;4962927;28;20053;-80
2020/12/06 09:16:59;;;;;;;6.03;5.25;;;;;;;4.90;78.13;99038.91;4936925;28;20552;-79
2020/12/06 09:19:24;;;;;;;4.35;4.05;;;;;;;4.86;76.84;99019.69;4939308;28;20043;-80
2020/12/06 09:21:50;;;;;;;5.50;5.10;;;;;;;4.86;76.89;99013.44;4938243;28;20092;-80
2020/12/06 09:24:15;;;;;;;3.65;3.22;;;;;;;5.04;77.19;99023.03;4958655;28;20143;-79
2020/12/06 09:26:40;;;;;;;8.20;4.88;;;;;;;5.16;76.90;99026.31;4939019;28;20394;-78
2020/12/06 09:29:08;;;;;;;5.78;4.65;;;;;;;5.31;76.61;99028.25;4959294;28;20031;-80
2020/12/06 09:31:36;;;;;;;6.60;4.25;;;;;;;5.38;75.63;99023.41;4944438;29;20110;-77
2020/12/06 09:34:12;;;;;;;;;;;;;;;;;;;;;
2020/12/06 09:36:44;;;;;;;3.72;3.42;;;;;;;5.40;75.11;99021.28;4948125;28;20094;-78
2020/12/06 09:39:15;;;;;;;5.18;4.88;;;;;;;5.41;75.18;99031.00;4944412;29;20023;-77
2020/12/06 09:41:55;;;;;;;4.38;4.13;;;;;;;5.39;75.18;99041.31;4943153;29;20119;-78
2020/12/06 09:44:27;;;;;;;4.43;3.60;;;;;;;5.37;75.32;99043.50;4958943;28;20074;-77
2020/12/06 09:47:03;;;;;;;;;;;;;;;;;;;;;
2020/12/06 09:49:51;;;;;;;5.55;4.32;;;;;;;5.42;75.26;99039.97;4933933;28;20091;-80
2020/12/06 09:52:16;;;;;;;10.05;5.43;;;;;;;5.37;75.01;99038.06;4945538;28;20054;-77
2020/12/06 09:54:44;;;;;;;4.68;3.88;;;;;;;5.45;75.21;99044.03;4940494;29;20027;-78
2020/12/06 09:57:27;;;;;;;;;;;;;;;;;;;;;
2020/12/06 10:00:03;;;;;;;;;;;;;;;;;;;;;
2020/12/06 10:05:49;;;;;;;3.97;3.67;;;;;;;5.29;74.83;99041.28;4953026;28;20150;-78
2020/12/06 10:08:22;;;;;;;5.68;3.72;;;;;;;5.39;74.97;99045.94;4951057;28;20023;-78
2020/12/06 10:11:09;;;;;;;4.25;3.95;;;;;;;5.38;74.25;99034.25;4956138;28;20033;-76
2020/12/06 10:13:35;;;;;;;;;;;;;;;5.59;74.19;99066.84;4947316;28;20103;-78
2020/12/06 10:16:01;;;;;;;3.88;3.22;;;;;;;5.47;73.75;99050.03;4935018;28;20013;-76
2020/12/06 10:18:36;;;;;;;3.92;3.72;;;;;;;5.49;73.80;99050.56;4932302;29;20453;-76
2020/12/06 10:21:25;;;;;;;;;;;;;;;;;;;;;
2020/12/06 10:24:42;;;;;;;3.22;3.13;;;;;;;5.55;74.64;99049.50;4942312;28;20099;-78
2020/12/06 10:27:43;;;;;;;3.85;3.58;;;;;;;5.68;73.96;99054.44;4956512;28;20034;-76
2020/12/06 10:30:16;;;;;;;;;;;;;;;;;;;;;
2020/12/06 10:32:53;;;;;;;5.20;3.88;;;;;;;5.87;74.14;99051.19;4955639;28;20448;-76
2020/12/06 10:35:36;;;;;;;3.22;3.03;;;;;;;5.96;74.01;99055.03;4929122;28;20046;-76
2020/12/06 10:38:12;;;;;;;6.07;3.97;;;;;;;5.94;73.77;99038.19;4937347;28;20042;-76
2020/12/06 10:40:47;;;;;;;3.80;3.10;;;;;;;5.99;72.96;99032.81;4936570;29;20023;-77
2020/12/06 10:43:15;;;;;;;3.70;3.38;;;;;;;6.14;73.33;99052.91;4956006;28;20036;-77
2020/12/06 10:45:40;;;;;;;2.78;2.67;;;;;;;6.07;72.87;99034.16;4942067;29;20032;-76
2020/12/06 10:48:18;;;;;;;;;;;;;;;;;;;;;
2020/12/06 10:50:50;;;;;;;4.38;4.07;;;;;;;6.23;72.89;99064.84;4939400;28;20102;-78
2020/12/06 10:53:20;;;;;;;3.08;2.88;;;;;;;6.16;72.94;99058.88;4934085;28;20028;-78
2020/12/06 10:55:48;;;;;;;5.03;4.63;;;;;;;6.16;72.58;99054.25;4950957;28;20027;-79
2020/12/06 10:58:32;;;;;;;;;;;;;;;;;;;;;
2020/12/06 11:01:05;;;;;;;3.65;3.45;;;;;;;6.25;73.97;99038.25;4964753;28;20051;-80
2020/12/06 11:03:43;;;;;;;;;;;;;;;;;;;;;
2020/12/06 11:06:16;;;;;;;2.60;2.50;;;;;;;6.51;73.21;99032.81;4961396;28;20070;-78
2020/12/06 11:08:52;;;;;;;3.15;2.95;;;;;;;6.91;73.12;99045.50;4923681;28;20043;-79
2020/12/06 11:11:19;;;;;;;2.92;2.72;;;;;;;7.61;73.35;99043.91;4945647;28;20027;-78
2020/12/06 11:13:46;;;;;;;3.50;3.20;;;;;;;8.71;71.75;99060.00;4940417;28;20131;-77
2020/12/06 11:16:23;;;;;;;3.38;3.17;;;;;;;9.64;70.43;99058.97;4952626;28;20039;-77
2020/12/06 11:18:50;;;;;;;1.73;1.63;;;;;;;10.53;69.71;99063.69;4930555;28;20066;-79
2020/12/06 11:21:17;;;;;;;3.30;3.15;;;;;;;11.70;69.07;99067.25;4949047;28;20027;-77
2020/12/06 11:23:48;;;;;;;3.30;3.00;;;;;;;12.80;66.02;99058.94;4936272;28;20026;-77
2020/12/06 11:26:18;;;;;;;3.75;3.53;;;;;;;13.18;63.60;99063.97;4956308;28;20046;-76
2020/12/06 11:28:47;;;;;;;2.97;2.85;;;;;;;13.50;62.90;99059.28;4958927;28;20038;-79
2020/12/06 11:31:13;;;;;;;2.38;2.28;;;;;;;13.98;62.11;99047.41;4957404;28;20046;-77
2020/12/06 11:33:39;;;;;;;1.00;1.00;;;;;;;14.19;61.12;99055.00;4957095;28;20023;-79
2020/12/06 11:36:08;;;;;;;1.20;1.10;;;;;;;14.40;60.79;99069.72;4963395;28;20029;-77
2020/12/06 11:38:36;;;;;;;1.17;1.17;;;;;;;14.73;60.18;99066.44;4964746;28;20039;-78
2020/12/06 11:41:04;;;;;;;1.45;1.35;;;;;;;14.44;57.83;99059.69;4954115;28;20019;-78
2020/12/06 11:43:33;;;;;;;1.27;1.25;;;;;;;13.92;57.10;99071.47;4959666;28;20027;-76
2020/12/06 11:45:59;;;;;;;2.10;2.00;;;;;;;13.43;56.55;99060.56;4943750;29;20036;-79
2020/12/06 11:48:24;;;;;;;2.22;2.03;;;;;;;13.55;57.94;99056.38;4957017;28;20038;-75
2020/12/06 11:50:52;;;;;;;1.73;1.63;;;;;;;13.72;57.41;99055.59;4959216;28;20027;-76
2020/12/06 11:53:17;;;;;;;1.70;1.55;;;;;;;13.69;57.24;99056.25;4947817;28;20082;-82
2020/12/06 11:55:45;;;;;;;3.55;2.00;;;;;;;13.79;57.09;99061.44;4959628;28;20043;-77
2020/12/06 11:58:10;;;;;;;1.35;1.25;;;;;;;14.78;58.49;99058.03;4947593;29;20037;-78
2020/12/06 12:00:39;;;;;;;2.72;2.53;;;;;;;15.84;54.71;99070.25;4930517;28;20110;-77
2020/12/06 12:03:07;;;;;;;1.98;1.88;;;;;;;16.66;54.86;99059.81;4958890;28;20034;-79
2020/12/06 12:05:32;;;;;;;3.78;3.47;;;;;;;17.93;52.17;99066.44;4952775;28;21642;-79
2020/12/06 12:08:00;;;;;;;1.90;1.80;;;;;;;19.22;51.99;99071.19;4931125;29;20466;-80
2020/12/06 12:10:25;;;;;;;1.58;1.48;;;;;;;20.35;49.69;99067.84;4931835;28;20126;-81
2020/12/06 12:12:51;;;;;;;1.60;1.40;;;;;;;21.25;47.68;99068.78;4937630;28;20106;-80
2020/12/06 12:15:25;;;;;;;2.92;2.70;;;;;;;22.09;45.58;99078.03;4939883;28;20031;-79
2020/12/06 12:17:53;;;;;;;1.52;1.42;;;;;;;22.64;43.98;99066.41;4959517;28;20050;-78
2020/12/06 12:20:26;;;;;;;2.55;2.45;;;;;;;22.96;40.71;99065.94;4943235;29;20071;-78